WZZ4VB LPPS-LPMA
Flight info
| Callsign | WZZ4VB |
|---|---|
| Flight time | 0h 13m |
| Altitude | 7000 |
| Route | PILIM |
| Aircraft | A320/M-SDE3FGHIRWY/LB1 |
Departure
| Time | 2026-04-26 13:16 |
|---|---|
| Airport | Porto Santo Airport (LPPS) |
Arrival
| Time | 2026-04-26 13:29 |
|---|---|
| Airport | Cristiano Ronaldo International Airport (LPMA) |
| Time | Latitude | Longitude | Altitude | Speed | Heading |
|---|---|---|---|---|---|
| 2026-04-26 13:08 | 33.07125 | -16.34634 | 292 ft | 0 kts | 128° |
| 2026-04-26 13:13 | 33.07123 | -16.34630 | 296 ft | 2 kts | 128° |
| 2026-04-26 13:13 | 33.07073 | -16.34653 | 291 ft | 19 kts | 214° |
| 2026-04-26 13:14 | 33.06967 | -16.34807 | 287 ft | 25 kts | 263° |
| 2026-04-26 13:14 | 33.06961 | -16.34900 | 287 ft | 9 kts | 267° |
| 2026-04-26 13:14 | 33.06974 | -16.34974 | 292 ft | 9 kts | 319° |
| 2026-04-26 13:14 | 33.07002 | -16.34979 | 291 ft | 0 kts | 358° |
| 2026-04-26 13:15 | 33.07003 | -16.34979 | 291 ft | 0 kts | 358° |
| 2026-04-26 13:15 | 33.07187 | -16.34986 | 296 ft | 60 kts | 359° |
| 2026-04-26 13:15 | 33.07801 | -16.35009 | 316 ft | 114 kts | 358° |
| 2026-04-26 13:16 | 33.08693 | -16.35043 | 629 ft | 126 kts | 359° |
| 2026-04-26 13:16 | 33.09571 | -16.35082 | 1206 ft | 126 kts | 2° |
| 2026-04-26 13:16 | 33.10443 | -16.35100 | 1550 ft | 133 kts | 2° |
| 2026-04-26 13:16 | 33.11451 | -16.35116 | 1701 ft | 159 kts | 1° |
| 2026-04-26 13:17 | 33.14027 | -16.35429 | 2179 ft | 215 kts | 335° |
| 2026-04-26 13:17 | 33.15130 | -16.36799 | 2561 ft | 251 kts | 297° |
| 2026-04-26 13:18 | 33.14392 | -16.40920 | 4082 ft | 282 kts | 224° |
| 2026-04-26 13:18 | 33.12777 | -16.42247 | 4994 ft | 283 kts | 204° |
| 2026-04-26 13:18 | 33.09156 | -16.44215 | 6063 ft | 288 kts | 204° |
| 2026-04-26 13:19 | 33.07383 | -16.45307 | 6147 ft | 287 kts | 205° |
| 2026-04-26 13:19 | 33.05623 | -16.46435 | 6161 ft | 287 kts | 206° |
| 2026-04-26 13:19 | 33.03869 | -16.47564 | 6169 ft | 287 kts | 206° |
| 2026-04-26 13:19 | 33.02120 | -16.48684 | 6166 ft | 287 kts | 206° |
| 2026-04-26 13:20 | 33.00351 | -16.49804 | 6170 ft | 287 kts | 205° |
| 2026-04-26 13:20 | 32.98587 | -16.50912 | 6168 ft | 287 kts | 205° |
| 2026-04-26 13:20 | 32.96817 | -16.52022 | 6161 ft | 287 kts | 205° |
| 2026-04-26 13:20 | 32.95051 | -16.53122 | 6169 ft | 287 kts | 205° |
| 2026-04-26 13:21 | 32.93853 | -16.53869 | 6169 ft | 287 kts | 205° |
| 2026-04-26 13:21 | 32.92691 | -16.54601 | 6157 ft | 287 kts | 206° |
| 2026-04-26 13:21 | 32.90348 | -16.56067 | 6170 ft | 287 kts | 205° |
| 2026-04-26 13:21 | 32.88578 | -16.57164 | 6177 ft | 287 kts | 205° |
| 2026-04-26 13:22 | 32.86807 | -16.58264 | 6165 ft | 287 kts | 205° |
| 2026-04-26 13:22 | 32.85099 | -16.59493 | 6163 ft | 289 kts | 216° |
| 2026-04-26 13:22 | 32.83581 | -16.61070 | 6163 ft | 290 kts | 220° |
| 2026-04-26 13:22 | 32.82035 | -16.62593 | 6161 ft | 288 kts | 211° |
| 2026-04-26 13:23 | 32.80266 | -16.63681 | 6063 ft | 286 kts | 198° |
| 2026-04-26 13:23 | 32.78387 | -16.64462 | 5763 ft | 282 kts | 196° |
| 2026-04-26 13:23 | 32.76560 | -16.65202 | 5603 ft | 275 kts | 196° |
| 2026-04-26 13:23 | 32.74736 | -16.65936 | 5115 ft | 280 kts | 197° |
| 2026-04-26 13:24 | 32.72866 | -16.66690 | 4548 ft | 278 kts | 197° |
| 2026-04-26 13:24 | 32.71043 | -16.67424 | 4022 ft | 283 kts | 198° |
| 2026-04-26 13:24 | 32.69177 | -16.68177 | 3760 ft | 280 kts | 198° |
| 2026-04-26 13:24 | 32.67380 | -16.68908 | 3689 ft | 264 kts | 199° |
| 2026-04-26 13:25 | 32.65699 | -16.69594 | 3621 ft | 242 kts | 199° |
| 2026-04-26 13:25 | 32.64190 | -16.70208 | 3530 ft | 223 kts | 199° |
| 2026-04-26 13:25 | 32.62821 | -16.71046 | 3070 ft | 224 kts | 219° |
| 2026-04-26 13:25 | 32.61734 | -16.72386 | 2505 ft | 226 kts | 240° |
| 2026-04-26 13:26 | 32.61069 | -16.74007 | 2266 ft | 212 kts | 258° |
| 2026-04-26 13:26 | 32.60841 | -16.75626 | 2187 ft | 189 kts | 272° |
| 2026-04-26 13:26 | 32.60945 | -16.77015 | 2079 ft | 162 kts | 287° |
| 2026-04-26 13:26 | 32.61287 | -16.78213 | 1976 ft | 148 kts | 302° |
| 2026-04-26 13:27 | 32.61870 | -16.79164 | 1753 ft | 139 kts | 320° |
| 2026-04-26 13:27 | 32.62629 | -16.79846 | 1559 ft | 135 kts | 336° |
| 2026-04-26 13:27 | 32.63499 | -16.80225 | 1410 ft | 133 kts | 351° |
| 2026-04-26 13:27 | 32.64422 | -16.80345 | 1224 ft | 134 kts | 1° |
| 2026-04-26 13:28 | 32.65350 | -16.80354 | 1075 ft | 134 kts | 1° |
| 2026-04-26 13:28 | 32.66288 | -16.80334 | 864 ft | 136 kts | 5° |
| 2026-04-26 13:28 | 32.67219 | -16.80144 | 650 ft | 140 kts | 19° |
| 2026-04-26 13:28 | 32.67997 | -16.79508 | 472 ft | 136 kts | 39° |
| 2026-04-26 13:29 | 32.68677 | -16.78729 | 303 ft | 136 kts | 41° |
| 2026-04-26 13:29 | 32.69126 | -16.78215 | 219 ft | 136 kts | 42° |
| 2026-04-26 13:29 | 32.69831 | -16.77396 | 201 ft | 54 kts | 44° |
| 2026-04-26 13:29 | 32.69960 | -16.77228 | 207 ft | 15 kts | 80° |
| 2026-04-26 13:30 | 32.69884 | -16.77178 | 204 ft | 12 kts | 180° |
| 2026-04-26 13:30 | 32.69800 | -16.77225 | 202 ft | 17 kts | 226° |
| 2026-04-26 13:30 | 32.69704 | -16.77344 | 199 ft | 23 kts | 226° |
| 2026-04-26 13:30 | 32.69613 | -16.77457 | 197 ft | 18 kts | 227° |
| 2026-04-26 13:31 | 32.69543 | -16.77528 | 194 ft | 8 kts | 182° |
| 2026-04-26 13:31 | 32.69494 | -16.77482 | 191 ft | 3 kts | 138° |
| 2026-04-26 13:31 | 32.69491 | -16.77479 | 191 ft | 0 kts | 138° |